sensor_id;sensor_type;location;lat;lon;timestamp;P1;durP1;ratioP1;P2;durP2;ratioP2
76202;SDS011;64985;46.364;17.008;2023-05-10T00:00:04;14.65;;;8.48;;
76202;SDS011;64985;46.364;17.008;2023-05-10T00:03:07;16.88;;;8.60;;
76202;SDS011;64985;46.364;17.008;2023-05-10T00:06:10;16.83;;;9.10;;
76202;SDS011;64985;46.364;17.008;2023-05-10T00:09:12;15.68;;;8.27;;
76202;SDS011;64985;46.364;17.008;2023-05-10T00:12:14;15.07;;;9.02;;
76202;SDS011;64985;46.364;17.008;2023-05-10T00:15:17;20.52;;;11.82;;
76202;SDS011;64985;46.364;17.008;2023-05-10T00:18:19;13.35;;;8.75;;
76202;SDS011;64985;46.364;17.008;2023-05-10T00:21:21;15.30;;;9.05;;
76202;SDS011;64985;46.364;17.008;2023-05-10T00:24:23;18.85;;;9.30;;
76202;SDS011;64985;46.364;17.008;2023-05-10T00:27:26;13.77;;;8.48;;
76202;SDS011;64985;46.364;17.008;2023-05-10T00:30:28;17.98;;;10.00;;
76202;SDS011;64985;46.364;17.008;2023-05-10T00:33:30;14.98;;;9.63;;
76202;SDS011;64985;46.364;17.008;2023-05-10T00:36:32;16.58;;;8.73;;
76202;SDS011;64985;46.364;17.008;2023-05-10T00:39:35;13.60;;;8.25;;
76202;SDS011;64985;46.364;17.008;2023-05-10T00:42:37;14.00;;;8.25;;
76202;SDS011;64985;46.364;17.008;2023-05-10T00:45:39;13.48;;;8.23;;
76202;SDS011;64985;46.364;17.008;2023-05-10T00:48:43;14.32;;;9.15;;
76202;SDS011;64985;46.364;17.008;2023-05-10T00:51:46;15.45;;;8.98;;
76202;SDS011;64985;46.364;17.008;2023-05-10T00:54:50;16.17;;;8.75;;
76202;SDS011;64985;46.364;17.008;2023-05-10T00:57:53;14.20;;;8.70;;
76202;SDS011;64985;46.364;17.008;2023-05-10T01:00:56;16.75;;;9.63;;
76202;SDS011;64985;46.364;17.008;2023-05-10T01:03:59;17.48;;;8.75;;
76202;SDS011;64985;46.364;17.008;2023-05-10T01:07:01;15.00;;;8.88;;
76202;SDS011;64985;46.364;17.008;2023-05-10T01:10:04;19.50;;;9.32;;
76202;SDS011;64985;46.364;17.008;2023-05-10T01:13:10;15.55;;;9.13;;
76202;SDS011;64985;46.364;17.008;2023-05-10T01:16:12;15.65;;;9.55;;
76202;SDS011;64985;46.364;17.008;2023-05-10T01:19:19;14.60;;;8.77;;
76202;SDS011;64985;46.364;17.008;2023-05-10T01:29:11;16.60;;;9.90;;
76202;SDS011;64985;46.364;17.008;2023-05-10T01:39:11;21.23;;;11.33;;
76202;SDS011;64985;46.364;17.008;2023-05-10T01:42:23;21.08;;;10.48;;
76202;SDS011;64985;46.364;17.008;2023-05-10T01:45:47;22.00;;;10.35;;
76202;SDS011;64985;46.364;17.008;2023-05-10T01:49:15;24.60;;;11.77;;
76202;SDS011;64985;46.364;17.008;2023-05-10T01:52:25;27.13;;;13.27;;
76202;SDS011;64985;46.364;17.008;2023-05-10T01:55:32;30.75;;;13.95;;
76202;SDS011;64985;46.364;17.008;2023-05-10T01:58:37;32.83;;;14.20;;
76202;SDS011;64985;46.364;17.008;2023-05-10T02:01:42;74.85;;;15.70;;
76202;SDS011;64985;46.364;17.008;2023-05-10T02:04:46;42.92;;;14.70;;
76202;SDS011;64985;46.364;17.008;2023-05-10T02:07:50;35.80;;;15.00;;
76202;SDS011;64985;46.364;17.008;2023-05-10T02:10:54;33.05;;;15.27;;
76202;SDS011;64985;46.364;17.008;2023-05-10T02:13:58;31.17;;;15.07;;
76202;SDS011;64985;46.364;17.008;2023-05-10T02:17:02;37.05;;;16.48;;
76202;SDS011;64985;46.364;17.008;2023-05-10T02:20:06;38.00;;;16.65;;
76202;SDS011;64985;46.364;17.008;2023-05-10T02:23:09;41.72;;;17.52;;
76202;SDS011;64985;46.364;17.008;2023-05-10T02:26:12;45.75;;;17.60;;
76202;SDS011;64985;46.364;17.008;2023-05-10T02:29:16;68.68;;;18.67;;
76202;SDS011;64985;46.364;17.008;2023-05-10T02:32:21;176.38;;;20.55;;
76202;SDS011;64985;46.364;17.008;2023-05-10T02:35:24;168.32;;;21.17;;
76202;SDS011;64985;46.364;17.008;2023-05-10T02:38:27;61.60;;;20.08;;
76202;SDS011;64985;46.364;17.008;2023-05-10T02:41:31;51.22;;;20.23;;
76202;SDS011;64985;46.364;17.008;2023-05-10T02:44:34;82.68;;;20.83;;
76202;SDS011;64985;46.364;17.008;2023-05-10T02:47:38;62.10;;;20.92;;
76202;SDS011;64985;46.364;17.008;2023-05-10T02:50:42;62.55;;;20.92;;
76202;SDS011;64985;46.364;17.008;2023-05-10T02:53:46;58.00;;;21.27;;
76202;SDS011;64985;46.364;17.008;2023-05-10T02:56:59;63.40;;;21.92;;
76202;SDS011;64985;46.364;17.008;2023-05-10T03:00:04;56.80;;;21.02;;
76202;SDS011;64985;46.364;17.008;2023-05-10T03:03:07;59.05;;;20.88;;
76202;SDS011;64985;46.364;17.008;2023-05-10T03:06:10;56.35;;;21.35;;
76202;SDS011;64985;46.364;17.008;2023-05-10T03:09:12;51.50;;;20.17;;
76202;SDS011;64985;46.364;17.008;2023-05-10T03:18:43;48.05;;;19.98;;
76202;SDS011;64985;46.364;17.008;2023-05-10T03:21:50;47.85;;;19.25;;
76202;SDS011;64985;46.364;17.008;2023-05-10T03:24:55;47.83;;;19.65;;
76202;SDS011;64985;46.364;17.008;2023-05-10T03:27:59;49.50;;;20.83;;
76202;SDS011;64985;46.364;17.008;2023-05-10T03:31:04;51.50;;;21.13;;
76202;SDS011;64985;46.364;17.008;2023-05-10T03:34:07;53.40;;;21.10;;
76202;SDS011;64985;46.364;17.008;2023-05-10T03:37:09;50.10;;;22.20;;
76202;SDS011;64985;46.364;17.008;2023-05-10T03:40:12;54.38;;;22.83;;
76202;SDS011;64985;46.364;17.008;2023-05-10T03:43:14;60.88;;;23.42;;
76202;SDS011;64985;46.364;17.008;2023-05-10T03:46:16;67.43;;;25.85;;
76202;SDS011;64985;46.364;17.008;2023-05-10T03:49:18;71.05;;;25.98;;
76202;SDS011;64985;46.364;17.008;2023-05-10T03:52:21;67.32;;;25.13;;
76202;SDS011;64985;46.364;17.008;2023-05-10T03:55:23;58.50;;;22.80;;
76202;SDS011;64985;46.364;17.008;2023-05-10T03:58:25;64.00;;;23.55;;
76202;SDS011;64985;46.364;17.008;2023-05-10T04:01:27;63.70;;;25.40;;
76202;SDS011;64985;46.364;17.008;2023-05-10T04:04:29;66.22;;;25.13;;
76202;SDS011;64985;46.364;17.008;2023-05-10T04:07:32;69.50;;;26.58;;
76202;SDS011;64985;46.364;17.008;2023-05-10T04:10:34;77.93;;;27.95;;
76202;SDS011;64985;46.364;17.008;2023-05-10T04:13:36;70.03;;;27.38;;
76202;SDS011;64985;46.364;17.008;2023-05-10T04:16:39;73.68;;;27.83;;
76202;SDS011;64985;46.364;17.008;2023-05-10T04:19:41;73.60;;;26.92;;
76202;SDS011;64985;46.364;17.008;2023-05-10T04:22:43;77.45;;;28.70;;
76202;SDS011;64985;46.364;17.008;2023-05-10T04:25:45;67.85;;;26.10;;
76202;SDS011;64985;46.364;17.008;2023-05-10T04:28:48;70.50;;;26.52;;
76202;SDS011;64985;46.364;17.008;2023-05-10T04:31:50;65.35;;;26.38;;
76202;SDS011;64985;46.364;17.008;2023-05-10T04:34:52;62.75;;;26.27;;
76202;SDS011;64985;46.364;17.008;2023-05-10T04:37:54;57.70;;;25.65;;
76202;SDS011;64985;46.364;17.008;2023-05-10T04:41:09;61.60;;;25.73;;
76202;SDS011;64985;46.364;17.008;2023-05-10T04:44:13;63.45;;;26.38;;
76202;SDS011;64985;46.364;17.008;2023-05-10T04:47:15;57.90;;;25.40;;
76202;SDS011;64985;46.364;17.008;2023-05-10T04:50:18;51.70;;;24.75;;
76202;SDS011;64985;46.364;17.008;2023-05-10T04:53:20;47.63;;;24.90;;
76202;SDS011;64985;46.364;17.008;2023-05-10T04:56:22;47.83;;;25.25;;
76202;SDS011;64985;46.364;17.008;2023-05-10T04:59:24;39.67;;;21.98;;
76202;SDS011;64985;46.364;17.008;2023-05-10T05:02:27;29.77;;;18.23;;
76202;SDS011;64985;46.364;17.008;2023-05-10T05:05:29;24.67;;;16.85;;
76202;SDS011;64985;46.364;17.008;2023-05-10T05:08:31;24.13;;;14.30;;
76202;SDS011;64985;46.364;17.008;2023-05-10T05:11:36;19.77;;;13.48;;
76202;SDS011;64985;46.364;17.008;2023-05-10T05:14:38;16.73;;;11.85;;
76202;SDS011;64985;46.364;17.008;2023-05-10T05:17:40;15.93;;;11.77;;
76202;SDS011;64985;46.364;17.008;2023-05-10T05:20:42;22.42;;;12.02;;
76202;SDS011;64985;46.364;17.008;2023-05-10T05:23:44;17.48;;;12.23;;
76202;SDS011;64985;46.364;17.008;2023-05-10T05:26:47;16.33;;;11.55;;
76202;SDS011;64985;46.364;17.008;2023-05-10T05:29:50;16.13;;;11.73;;
76202;SDS011;64985;46.364;17.008;2023-05-10T05:32:53;18.17;;;11.70;;
76202;SDS011;64985;46.364;17.008;2023-05-10T05:35:56;15.02;;;10.95;;
76202;SDS011;64985;46.364;17.008;2023-05-10T05:38:58;16.05;;;11.05;;
76202;SDS011;64985;46.364;17.008;2023-05-10T05:42:00;14.38;;;9.93;;
76202;SDS011;64985;46.364;17.008;2023-05-10T05:45:02;12.60;;;9.52;;
76202;SDS011;64985;46.364;17.008;2023-05-10T05:48:04;11.70;;;8.93;;
76202;SDS011;64985;46.364;17.008;2023-05-10T05:51:07;13.60;;;8.52;;
76202;SDS011;64985;46.364;17.008;2023-05-10T05:54:09;11.80;;;8.80;;
76202;SDS011;64985;46.364;17.008;2023-05-10T05:57:11;13.45;;;8.13;;
76202;SDS011;64985;46.364;17.008;2023-05-10T06:00:13;11.20;;;7.65;;
76202;SDS011;64985;46.364;17.008;2023-05-10T06:03:16;10.25;;;8.10;;
76202;SDS011;64985;46.364;17.008;2023-05-10T06:06:18;9.75;;;7.20;;
76202;SDS011;64985;46.364;17.008;2023-05-10T06:09:20;10.60;;;6.85;;
76202;SDS011;64985;46.364;17.008;2023-05-10T06:12:22;11.70;;;6.82;;
76202;SDS011;64985;46.364;17.008;2023-05-10T06:15:24;11.40;;;6.57;;
76202;SDS011;64985;46.364;17.008;2023-05-10T06:18:27;10.55;;;6.80;;
76202;SDS011;64985;46.364;17.008;2023-05-10T06:21:29;10.05;;;6.85;;
76202;SDS011;64985;46.364;17.008;2023-05-10T06:24:31;7.53;;;5.70;;
76202;SDS011;64985;46.364;17.008;2023-05-10T06:27:33;8.10;;;5.97;;
76202;SDS011;64985;46.364;17.008;2023-05-10T06:30:36;10.75;;;6.13;;
76202;SDS011;64985;46.364;17.008;2023-05-10T06:33:38;9.40;;;5.13;;
76202;SDS011;64985;46.364;17.008;2023-05-10T06:36:40;8.23;;;5.50;;
76202;SDS011;64985;46.364;17.008;2023-05-10T06:39:42;6.38;;;5.07;;
76202;SDS011;64985;46.364;17.008;2023-05-10T06:42:45;6.57;;;4.63;;
76202;SDS011;64985;46.364;17.008;2023-05-10T06:45:47;8.25;;;5.03;;
76202;SDS011;64985;46.364;17.008;2023-05-10T06:48:50;5.43;;;4.90;;
76202;SDS011;64985;46.364;17.008;2023-05-10T06:51:52;8.50;;;5.07;;
76202;SDS011;64985;46.364;17.008;2023-05-10T06:55:14;6.82;;;4.70;;
76202;SDS011;64985;46.364;17.008;2023-05-10T06:58:17;5.97;;;4.13;;
76202;SDS011;64985;46.364;17.008;2023-05-10T07:01:19;6.20;;;3.92;;
76202;SDS011;64985;46.364;17.008;2023-05-10T07:04:21;5.03;;;3.92;;
76202;SDS011;64985;46.364;17.008;2023-05-10T07:07:23;4.57;;;3.60;;
76202;SDS011;64985;46.364;17.008;2023-05-10T07:10:25;4.13;;;3.30;;
76202;SDS011;64985;46.364;17.008;2023-05-10T07:13:28;3.60;;;3.30;;
76202;SDS011;64985;46.364;17.008;2023-05-10T07:16:30;5.93;;;3.30;;
76202;SDS011;64985;46.364;17.008;2023-05-10T07:19:32;5.90;;;3.60;;
76202;SDS011;64985;46.364;17.008;2023-05-10T07:22:34;3.38;;;3.00;;
76202;SDS011;64985;46.364;17.008;2023-05-10T07:25:36;4.13;;;2.90;;
76202;SDS011;64985;46.364;17.008;2023-05-10T07:28:39;5.55;;;2.88;;
76202;SDS011;64985;46.364;17.008;2023-05-10T07:31:41;4.43;;;3.00;;
76202;SDS011;64985;46.364;17.008;2023-05-10T07:34:44;5.32;;;2.85;;
76202;SDS011;64985;46.364;17.008;2023-05-10T07:37:46;3.33;;;2.60;;
76202;SDS011;64985;46.364;17.008;2023-05-10T07:40:48;3.85;;;2.95;;
76202;SDS011;64985;46.364;17.008;2023-05-10T07:43:50;11.75;;;2.80;;
76202;SDS011;64985;46.364;17.008;2023-05-10T07:46:52;2.67;;;2.13;;
76202;SDS011;64985;46.364;17.008;2023-05-10T07:49:54;3.78;;;2.20;;
76202;SDS011;64985;46.364;17.008;2023-05-10T07:52:56;3.22;;;2.28;;
76202;SDS011;64985;46.364;17.008;2023-05-10T07:55:58;2.65;;;2.40;;
76202;SDS011;64985;46.364;17.008;2023-05-10T07:59:01;3.92;;;2.55;;
76202;SDS011;64985;46.364;17.008;2023-05-10T08:02:10;3.97;;;2.80;;
76202;SDS011;64985;46.364;17.008;2023-05-10T08:05:12;5.55;;;2.40;;
76202;SDS011;64985;46.364;17.008;2023-05-10T08:08:15;2.90;;;2.60;;
76202;SDS011;64985;46.364;17.008;2023-05-10T08:11:17;2.53;;;2.30;;
76202;SDS011;64985;46.364;17.008;2023-05-10T08:14:20;3.13;;;2.40;;
76202;SDS011;64985;46.364;17.008;2023-05-10T08:17:22;2.90;;;2.60;;
76202;SDS011;64985;46.364;17.008;2023-05-10T08:20:25;5.78;;;2.40;;
76202;SDS011;64985;46.364;17.008;2023-05-10T08:23:27;3.03;;;2.50;;
76202;SDS011;64985;46.364;17.008;2023-05-10T08:26:30;2.55;;;2.20;;
76202;SDS011;64985;46.364;17.008;2023-05-10T08:29:34;2.60;;;2.00;;
76202;SDS011;64985;46.364;17.008;2023-05-10T08:32:49;4.22;;;2.25;;
76202;SDS011;64985;46.364;17.008;2023-05-10T08:35:51;3.17;;;2.60;;
76202;SDS011;64985;46.364;17.008;2023-05-10T08:38:53;2.15;;;1.95;;
76202;SDS011;64985;46.364;17.008;2023-05-10T08:41:57;2.50;;;2.10;;
76202;SDS011;64985;46.364;17.008;2023-05-10T08:45:03;3.55;;;2.30;;
76202;SDS011;64985;46.364;17.008;2023-05-10T08:48:07;4.43;;;2.20;;
76202;SDS011;64985;46.364;17.008;2023-05-10T08:51:13;3.10;;;2.20;;
76202;SDS011;64985;46.364;17.008;2023-05-10T08:54:18;3.73;;;2.50;;
76202;SDS011;64985;46.364;17.008;2023-05-10T08:57:21;2.70;;;2.20;;
76202;SDS011;64985;46.364;17.008;2023-05-10T09:00:23;3.67;;;2.30;;
76202;SDS011;64985;46.364;17.008;2023-05-10T09:03:26;3.08;;;2.53;;
76202;SDS011;64985;46.364;17.008;2023-05-10T09:06:28;3.35;;;2.50;;
76202;SDS011;64985;46.364;17.008;2023-05-10T09:09:31;3.55;;;2.88;;
76202;SDS011;64985;46.364;17.008;2023-05-10T09:12:33;3.30;;;2.58;;
76202;SDS011;64985;46.364;17.008;2023-05-10T09:15:36;2.55;;;2.35;;
76202;SDS011;64985;46.364;17.008;2023-05-10T09:18:38;2.40;;;2.20;;
76202;SDS011;64985;46.364;17.008;2023-05-10T09:21:41;3.25;;;2.33;;
76202;SDS011;64985;46.364;17.008;2023-05-10T09:24:43;2.67;;;2.33;;
76202;SDS011;64985;46.364;17.008;2023-05-10T09:27:47;5.35;;;2.50;;
76202;SDS011;64985;46.364;17.008;2023-05-10T09:30:52;3.25;;;2.38;;
76202;SDS011;64985;46.364;17.008;2023-05-10T09:33:57;3.15;;;2.50;;
76202;SDS011;64985;46.364;17.008;2023-05-10T09:37:00;5.03;;;2.80;;
76202;SDS011;64985;46.364;17.008;2023-05-10T09:40:04;3.90;;;2.50;;
76202;SDS011;64985;46.364;17.008;2023-05-10T09:43:09;3.80;;;2.55;;
76202;SDS011;64985;46.364;17.008;2023-05-10T09:46:12;4.65;;;2.70;;
76202;SDS011;64985;46.364;17.008;2023-05-10T09:49:14;3.55;;;2.90;;
76202;SDS011;64985;46.364;17.008;2023-05-10T09:52:16;3.20;;;2.60;;
76202;SDS011;64985;46.364;17.008;2023-05-10T09:55:19;4.40;;;2.55;;
76202;SDS011;64985;46.364;17.008;2023-05-10T09:58:23;4.25;;;3.28;;
76202;SDS011;64985;46.364;17.008;2023-05-10T10:01:28;5.32;;;2.92;;
76202;SDS011;64985;46.364;17.008;2023-05-10T10:04:30;6.38;;;2.90;;
76202;SDS011;64985;46.364;17.008;2023-05-10T10:07:33;3.35;;;2.70;;
76202;SDS011;64985;46.364;17.008;2023-05-10T10:10:36;3.10;;;2.80;;
76202;SDS011;64985;46.364;17.008;2023-05-10T10:13:40;5.97;;;3.13;;
76202;SDS011;64985;46.364;17.008;2023-05-10T10:16:42;3.80;;;2.90;;
76202;SDS011;64985;46.364;17.008;2023-05-10T10:20:04;5.25;;;2.83;;
76202;SDS011;64985;46.364;17.008;2023-05-10T10:23:08;3.72;;;3.38;;
76202;SDS011;64985;46.364;17.008;2023-05-10T10:26:11;3.13;;;2.83;;
76202;SDS011;64985;46.364;17.008;2023-05-10T10:36:29;4.60;;;3.70;;
76202;SDS011;64985;46.364;17.008;2023-05-10T10:39:31;4.60;;;3.55;;
76202;SDS011;64985;46.364;17.008;2023-05-10T10:42:46;6.82;;;3.50;;
76202;SDS011;64985;46.364;17.008;2023-05-10T10:46:09;3.88;;;3.50;;
76202;SDS011;64985;46.364;17.008;2023-05-10T10:49:19;6.78;;;3.30;;
76202;SDS011;64985;46.364;17.008;2023-05-10T10:52:28;3.58;;;3.28;;
76202;SDS011;64985;46.364;17.008;2023-05-10T10:55:35;4.47;;;3.67;;
76202;SDS011;64985;46.364;17.008;2023-05-10T10:58:49;4.43;;;3.60;;
76202;SDS011;64985;46.364;17.008;2023-05-10T11:01:55;3.80;;;3.40;;
76202;SDS011;64985;46.364;17.008;2023-05-10T11:04:57;6.07;;;3.75;;
76202;SDS011;64985;46.364;17.008;2023-05-10T11:08:00;4.40;;;4.00;;
76202;SDS011;64985;46.364;17.008;2023-05-10T11:11:08;5.93;;;3.83;;
76202;SDS011;64985;46.364;17.008;2023-05-10T11:14:10;4.70;;;3.97;;
76202;SDS011;64985;46.364;17.008;2023-05-10T11:17:22;5.85;;;3.90;;
76202;SDS011;64985;46.364;17.008;2023-05-10T11:20:38;5.32;;;3.90;;
76202;SDS011;64985;46.364;17.008;2023-05-10T11:26:51;4.43;;;3.80;;
76202;SDS011;64985;46.364;17.008;2023-05-10T11:29:55;4.82;;;3.90;;
76202;SDS011;64985;46.364;17.008;2023-05-10T11:32:57;4.63;;;4.20;;
76202;SDS011;64985;46.364;17.008;2023-05-10T11:35:59;5.10;;;4.43;;
76202;SDS011;64985;46.364;17.008;2023-05-10T11:39:02;4.00;;;3.60;;
76202;SDS011;64985;46.364;17.008;2023-05-10T11:42:05;4.97;;;3.45;;
76202;SDS011;64985;46.364;17.008;2023-05-10T11:45:10;4.70;;;3.80;;
76202;SDS011;64985;46.364;17.008;2023-05-10T11:48:12;6.93;;;3.55;;
76202;SDS011;64985;46.364;17.008;2023-05-10T11:51:15;3.65;;;3.25;;
76202;SDS011;64985;46.364;17.008;2023-05-10T11:54:21;4.20;;;3.50;;
76202;SDS011;64985;46.364;17.008;2023-05-10T11:57:25;3.95;;;3.60;;
76202;SDS011;64985;46.364;17.008;2023-05-10T12:00:29;3.92;;;3.33;;
76202;SDS011;64985;46.364;17.008;2023-05-10T12:03:31;5.55;;;3.47;;
76202;SDS011;64985;46.364;17.008;2023-05-10T12:06:37;3.70;;;3.40;;
76202;SDS011;64985;46.364;17.008;2023-05-10T12:09:48;4.10;;;3.70;;
76202;SDS011;64985;46.364;17.008;2023-05-10T12:13:11;3.97;;;3.40;;
76202;SDS011;64985;46.364;17.008;2023-05-10T12:16:19;3.40;;;3.10;;
76202;SDS011;64985;46.364;17.008;2023-05-10T12:19:22;5.10;;;3.70;;
76202;SDS011;64985;46.364;17.008;2023-05-10T12:22:24;3.92;;;3.50;;
76202;SDS011;64985;46.364;17.008;2023-05-10T12:25:30;4.38;;;3.75;;
76202;SDS011;64985;46.364;17.008;2023-05-10T12:28:36;4.18;;;3.60;;
76202;SDS011;64985;46.364;17.008;2023-05-10T12:31:52;4.32;;;3.70;;
76202;SDS011;64985;46.364;17.008;2023-05-10T12:34:55;4.35;;;3.60;;
76202;SDS011;64985;46.364;17.008;2023-05-10T12:37:59;3.90;;;3.50;;
76202;SDS011;64985;46.364;17.008;2023-05-10T12:41:02;4.38;;;3.97;;
76202;SDS011;64985;46.364;17.008;2023-05-10T12:44:05;5.05;;;3.67;;
76202;SDS011;64985;46.364;17.008;2023-05-10T12:47:07;4.20;;;3.78;;
76202;SDS011;64985;46.364;17.008;2023-05-10T12:50:12;6.03;;;3.95;;
76202;SDS011;64985;46.364;17.008;2023-05-10T12:53:14;7.78;;;4.03;;
76202;SDS011;64985;46.364;17.008;2023-05-10T12:56:17;6.70;;;4.00;;
76202;SDS011;64985;46.364;17.008;2023-05-10T12:59:19;5.72;;;4.03;;
76202;SDS011;64985;46.364;17.008;2023-05-10T13:02:21;4.55;;;3.78;;
76202;SDS011;64985;46.364;17.008;2023-05-10T13:05:24;5.57;;;4.05;;
76202;SDS011;64985;46.364;17.008;2023-05-10T13:08:26;4.40;;;3.95;;
76202;SDS011;64985;46.364;17.008;2023-05-10T13:11:29;6.38;;;3.95;;
76202;SDS011;64985;46.364;17.008;2023-05-10T13:14:31;5.50;;;4.00;;
76202;SDS011;64985;46.364;17.008;2023-05-10T13:17:33;5.28;;;4.20;;
76202;SDS011;64985;46.364;17.008;2023-05-10T13:20:35;5.00;;;3.90;;
76202;SDS011;64985;46.364;17.008;2023-05-10T13:23:37;5.30;;;4.15;;
76202;SDS011;64985;46.364;17.008;2023-05-10T13:26:40;7.00;;;4.40;;
76202;SDS011;64985;46.364;17.008;2023-05-10T13:29:42;7.32;;;4.30;;
76202;SDS011;64985;46.364;17.008;2023-05-10T13:32:46;4.82;;;4.28;;
76202;SDS011;64985;46.364;17.008;2023-05-10T13:35:48;6.03;;;4.40;;
76202;SDS011;64985;46.364;17.008;2023-05-10T13:38:50;4.70;;;4.30;;
76202;SDS011;64985;46.364;17.008;2023-05-10T13:41:52;7.97;;;4.30;;
76202;SDS011;64985;46.364;17.008;2023-05-10T13:44:56;4.53;;;4.13;;
76202;SDS011;64985;46.364;17.008;2023-05-10T13:47:58;7.50;;;4.28;;
76202;SDS011;64985;46.364;17.008;2023-05-10T13:51:00;5.07;;;4.07;;
76202;SDS011;64985;46.364;17.008;2023-05-10T13:54:02;5.85;;;3.67;;
76202;SDS011;64985;46.364;17.008;2023-05-10T13:57:04;7.38;;;3.83;;
76202;SDS011;64985;46.364;17.008;2023-05-10T14:00:06;4.20;;;3.42;;
76202;SDS011;64985;46.364;17.008;2023-05-10T14:03:09;5.50;;;3.40;;
76202;SDS011;64985;46.364;17.008;2023-05-10T14:06:12;8.82;;;3.83;;
76202;SDS011;64985;46.364;17.008;2023-05-10T14:09:15;4.20;;;3.78;;
76202;SDS011;64985;46.364;17.008;2023-05-10T14:12:17;4.28;;;3.75;;
76202;SDS011;64985;46.364;17.008;2023-05-10T14:15:19;5.80;;;3.90;;
76202;SDS011;64985;46.364;17.008;2023-05-10T14:18:22;11.45;;;3.50;;
76202;SDS011;64985;46.364;17.008;2023-05-10T14:21:24;4.00;;;3.28;;
76202;SDS011;64985;46.364;17.008;2023-05-10T14:24:26;5.40;;;3.20;;
76202;SDS011;64985;46.364;17.008;2023-05-10T14:27:28;3.97;;;3.10;;
76202;SDS011;64985;46.364;17.008;2023-05-10T14:30:31;5.88;;;3.35;;
76202;SDS011;64985;46.364;17.008;2023-05-10T14:33:35;4.50;;;3.40;;
76202;SDS011;64985;46.364;17.008;2023-05-10T14:36:37;8.45;;;3.40;;
76202;SDS011;64985;46.364;17.008;2023-05-10T14:39:39;4.45;;;3.10;;
76202;SDS011;64985;46.364;17.008;2023-05-10T14:42:42;5.07;;;3.50;;
76202;SDS011;64985;46.364;17.008;2023-05-10T14:45:44;4.82;;;3.55;;
76202;SDS011;64985;46.364;17.008;2023-05-10T14:48:46;6.88;;;3.45;;
76202;SDS011;64985;46.364;17.008;2023-05-10T14:51:48;6.55;;;3.72;;
76202;SDS011;64985;46.364;17.008;2023-05-10T14:54:50;5.15;;;3.58;;
76202;SDS011;64985;46.364;17.008;2023-05-10T14:57:53;4.20;;;3.38;;
76202;SDS011;64985;46.364;17.008;2023-05-10T15:00:55;4.10;;;3.70;;
76202;SDS011;64985;46.364;17.008;2023-05-10T15:03:58;8.52;;;3.70;;
76202;SDS011;64985;46.364;17.008;2023-05-10T15:07:01;7.68;;;3.30;;
76202;SDS011;64985;46.364;17.008;2023-05-10T15:10:03;5.38;;;3.40;;
76202;SDS011;64985;46.364;17.008;2023-05-10T15:13:05;7.35;;;3.42;;
76202;SDS011;64985;46.364;17.008;2023-05-10T15:16:07;6.55;;;3.80;;
76202;SDS011;64985;46.364;17.008;2023-05-10T15:19:09;6.32;;;3.70;;
76202;SDS011;64985;46.364;17.008;2023-05-10T15:22:12;4.25;;;3.42;;
76202;SDS011;64985;46.364;17.008;2023-05-10T15:25:14;4.93;;;3.30;;
76202;SDS011;64985;46.364;17.008;2023-05-10T15:28:17;6.57;;;3.67;;
76202;SDS011;64985;46.364;17.008;2023-05-10T15:31:19;7.60;;;3.60;;
76202;SDS011;64985;46.364;17.008;2023-05-10T15:34:21;5.70;;;3.22;;
76202;SDS011;64985;46.364;17.008;2023-05-10T15:37:23;4.38;;;3.28;;
76202;SDS011;64985;46.364;17.008;2023-05-10T15:40:25;4.63;;;3.90;;
76202;SDS011;64985;46.364;17.008;2023-05-10T15:43:28;5.50;;;3.55;;
76202;SDS011;64985;46.364;17.008;2023-05-10T15:46:30;6.70;;;3.80;;
76202;SDS011;64985;46.364;17.008;2023-05-10T15:49:32;3.92;;;3.53;;
76202;SDS011;64985;46.364;17.008;2023-05-10T15:52:34;6.72;;;4.00;;
76202;SDS011;64985;46.364;17.008;2023-05-10T15:55:36;6.13;;;4.00;;
76202;SDS011;64985;46.364;17.008;2023-05-10T15:58:39;6.20;;;3.97;;
76202;SDS011;64985;46.364;17.008;2023-05-10T16:01:43;5.82;;;3.72;;
76202;SDS011;64985;46.364;17.008;2023-05-10T16:04:45;5.72;;;4.00;;
76202;SDS011;64985;46.364;17.008;2023-05-10T16:07:47;5.38;;;3.75;;
76202;SDS011;64985;46.364;17.008;2023-05-10T16:10:49;6.63;;;3.90;;
76202;SDS011;64985;46.364;17.008;2023-05-10T16:13:52;5.80;;;4.05;;
76202;SDS011;64985;46.364;17.008;2023-05-10T16:16:54;6.97;;;3.92;;
76202;SDS011;64985;46.364;17.008;2023-05-10T16:19:57;5.45;;;3.80;;
76202;SDS011;64985;46.364;17.008;2023-05-10T16:23:01;4.18;;;3.67;;
76202;SDS011;64985;46.364;17.008;2023-05-10T16:26:04;6.25;;;3.63;;
76202;SDS011;64985;46.364;17.008;2023-05-10T16:29:07;4.47;;;4.00;;
76202;SDS011;64985;46.364;17.008;2023-05-10T16:32:09;4.55;;;3.85;;
76202;SDS011;64985;46.364;17.008;2023-05-10T16:35:11;6.13;;;4.00;;
76202;SDS011;64985;46.364;17.008;2023-05-10T16:38:14;4.93;;;3.65;;
76202;SDS011;64985;46.364;17.008;2023-05-10T16:41:16;6.53;;;3.90;;
76202;SDS011;64985;46.364;17.008;2023-05-10T16:44:18;8.52;;;3.90;;
76202;SDS011;64985;46.364;17.008;2023-05-10T16:47:21;6.93;;;4.20;;
76202;SDS011;64985;46.364;17.008;2023-05-10T16:50:27;5.95;;;4.43;;
76202;SDS011;64985;46.364;17.008;2023-05-10T16:53:29;11.00;;;4.38;;
76202;SDS011;64985;46.364;17.008;2023-05-10T16:56:31;9.30;;;4.35;;
76202;SDS011;64985;46.364;17.008;2023-05-10T16:59:33;6.80;;;3.90;;
76202;SDS011;64985;46.364;17.008;2023-05-10T17:02:35;8.30;;;4.72;;
76202;SDS011;64985;46.364;17.008;2023-05-10T17:05:38;9.23;;;4.47;;
76202;SDS011;64985;46.364;17.008;2023-05-10T17:08:40;5.88;;;4.80;;
76202;SDS011;64985;46.364;17.008;2023-05-10T17:11:42;5.82;;;4.43;;
76202;SDS011;64985;46.364;17.008;2023-05-10T17:14:44;5.10;;;4.55;;
76202;SDS011;64985;46.364;17.008;2023-05-10T17:17:47;5.93;;;4.70;;
76202;SDS011;64985;46.364;17.008;2023-05-10T17:20:49;5.32;;;4.57;;
76202;SDS011;64985;46.364;17.008;2023-05-10T17:23:51;7.95;;;5.10;;
76202;SDS011;64985;46.364;17.008;2023-05-10T17:26:53;7.70;;;4.78;;
76202;SDS011;64985;46.364;17.008;2023-05-10T17:29:56;8.32;;;5.13;;
76202;SDS011;64985;46.364;17.008;2023-05-10T17:32:59;6.78;;;5.05;;
76202;SDS011;64985;46.364;17.008;2023-05-10T17:36:02;5.93;;;5.15;;
76202;SDS011;64985;46.364;17.008;2023-05-10T17:39:04;5.63;;;5.03;;
76202;SDS011;64985;46.364;17.008;2023-05-10T17:42:07;6.90;;;5.00;;
76202;SDS011;64985;46.364;17.008;2023-05-10T17:45:09;8.45;;;5.47;;
76202;SDS011;64985;46.364;17.008;2023-05-10T17:48:12;8.73;;;5.85;;
76202;SDS011;64985;46.364;17.008;2023-05-10T17:51:14;9.02;;;6.15;;
76202;SDS011;64985;46.364;17.008;2023-05-10T17:54:16;5.90;;;5.30;;
76202;SDS011;64985;46.364;17.008;2023-05-10T17:57:18;7.45;;;5.38;;
76202;SDS011;64985;46.364;17.008;2023-05-10T18:00:21;6.70;;;5.95;;
76202;SDS011;64985;46.364;17.008;2023-05-10T18:03:23;7.80;;;5.60;;
76202;SDS011;64985;46.364;17.008;2023-05-10T18:06:25;9.20;;;6.18;;
76202;SDS011;64985;46.364;17.008;2023-05-10T18:09:27;8.68;;;5.85;;
76202;SDS011;64985;46.364;17.008;2023-05-10T18:12:30;8.65;;;5.80;;
76202;SDS011;64985;46.364;17.008;2023-05-10T18:15:32;5.90;;;5.30;;
76202;SDS011;64985;46.364;17.008;2023-05-10T18:18:35;7.95;;;5.95;;
76202;SDS011;64985;46.364;17.008;2023-05-10T18:21:37;9.85;;;5.68;;
76202;SDS011;64985;46.364;17.008;2023-05-10T18:24:40;8.13;;;5.93;;
76202;SDS011;64985;46.364;17.008;2023-05-10T18:27:43;7.15;;;5.90;;